默认 日期 大小 文件数 浏览量 最新下载 xml
2015 hevc磁力链接相关资源由用户搜索指令自动获取,结果来源于网络,本站不存储任何资料,亦不承担任何责任,请于24小时内删除,搜索到5131个磁力,显示前4000条数据,用时2399ms。
    {"PSArips.com.txt": 33, "Concussion.2015.720p.10bit.BluRay.6CH.sample.mkv": 6285348, "Concussion.2015.720p.10bit.BluRay.6CH.x265.HEVC-PSA.mkv": 784542308}
创建时间: 2018-12-16 09:44:03 大小:754.19 MB 文件数量:3 热度:5 最近下载:2022-04-23 06:08:36
    {"No Escape 2015 1080p BluRay x265 HEVC 10bit AAC 5.1-LordVako.mkv": 1560601467}
创建时间: 2018-12-16 12:37:12 大小:1.45 GB 文件数量:1 热度:6 最近下载:2022-04-23 05:50:12
    ... , "screen0004.png": 938289}, "Ballers.2015.S04E07.720p.HEVC.x265-MeGusta.mkv": 334626261 ... , "Ballers.2015.S04E07.720p.HEVC.x265-MeGusta.nfo": 1185 ...
创建时间: 2018-12-16 14:01:29 大小:322.1 MB 文件数量:7 热度:5 最近下载:2022-04-23 06:15:37
    {"Supergirl.S03E22.Make.It.Reign.1080p.10bit.AMZN.WEB-DL.AAC5.1.HEVC-Vyndros.mkv": 713482681}
创建时间: 2018-12-16 15:18:52 大小:680.43 MB 文件数量:1 热度:6 最近下载:2022-04-23 06:26:20
    {"Jupiter Ascending 2015.BluRay.1080p.x265.HEVC.DTS.HuN-verpistike.mkv": 5102089441, "Jupiter Ascending 2015.BluRay.1080p.x265.HEVC.DTS.HuN-verpistike.nfo": 13690}
创建时间: 2018-12-16 17:43:03 大小:4.75 GB 文件数量:2 热度:11 最近下载:2025-03-20 06:33:01
    {"PSArips.com.txt": 33, "sinister2.sample.mkv": 5096356, "Sinister.2.2015.720p.BluRay.2CH.x265.HEVC-PSA.mkv": 542703665}
创建时间: 2018-12-16 18:51:16 大小:522.42 MB 文件数量:3 热度:5 最近下载:2022-04-23 06:15:00
    {"Sample.mkv": 15589373, "PSArips.com.txt": 33, "San.Andreas.2015.1080p.HQ.10bit.BluRay.8CH.x265.HEVC-PSA.mkv": 5578456492}
创建时间: 2018-12-16 21:04:18 大小:5.21 GB 文件数量:3 热度:12 最近下载:2024-10-20 18:14:01
    {"Sample.mkv": 6346330, "PSArips.com.txt": 33, "Self.less.2015.720p.BluRay.2CH.x265.HEVC-PSA.mkv": 544105426}
创建时间: 2018-12-16 23:13:50 大小:524.95 MB 文件数量:3 热度:6 最近下载:2024-03-29 22:58:01
    {"PSArips.com.txt": 33, "The.Witch.2015.720p.10bit.BluRay.6CH.sample.mkv": 16458216, "The.Witch.2015.720p.10bit.BluRay.6CH.x265.HEVC-PSA.mkv": 543706037}
创建时间: 2018-12-17 01:11:01 大小:534.21 MB 文件数量:3 热度:8 最近下载:2025-03-01 18:02:01
    {"Supergirl (2015) - S03E10 - Legion of Super-Heroes (1080p AMZN WEB-DL x265 Vyndros).mkv": 719209152}
创建时间: 2018-12-17 02:30:32 大小:685.89 MB 文件数量:1 热度:5 最近下载:2022-04-23 07:02:31
    ... .txt": 84, "BattleBots.2015.S03E02.REAL.720p.HEVC.x265-MeGusta.mkv": 635525097 ... , "BattleBots.2015.S03E02.REAL.720p.HEVC.x265 ...
创建时间: 2018-12-17 03:13:02 大小:611.28 MB 文件数量:7 热度:6 最近下载:2022-04-23 06:19:19
    {"We Bare Bears (2015) - S04E29 - Adopted (1080p AMZN WEB-DL x265 ImE).mkv": 101309945}
创建时间: 2018-12-17 03:26:03 大小:96.62 MB 文件数量:1 热度:11 最近下载:2022-04-23 06:17:04
    {"Supergirl.S04E06.Call.to.Action.1080p.10bit.AMZN.WEB-DL.AAC5.1.HEVC-Vyndros.mkv": 1022728278}
创建时间: 2018-12-17 07:06:43 大小:975.35 MB 文件数量:1 热度:5 最近下载:2022-04-23 06:34:38
    {"Please Support!! Read More!!!.txt": 232, "Torrent Downloaded From 1337x.to.txt": 69, "Torrent Downloaded From ExtraTorrent.cc.txt": 446, "The Martian 2015 ExtEd CinFree BluRay 1080p AC-3 5.1 HEVC-d3g[PRiME].mkv": 2582777236}
创建时间: 2018-12-17 07:43:32 大小:2.41 GB 文件数量:4 热度:7 最近下载:2023-12-28 12:44:05
    ... ).mkv": 505478064, "Adam Ruins Everything (2015) - S01E11 - Adam Ruins Nutrition ( ... ).mkv": 410781663, "Adam Ruins Everything (2015) - S01E05 - Adam Ruins Restaurants (1080p ... ).mkv": 597342248, "Adam Ruins Everything (2015) - S01E18 - Adam Ruins Immigration ( ...
创建时间: 2018-12-17 08:54:14 大小:11.55 GB 文件数量:26 热度:6 最近下载:2022-04-23 05:40:18
    {"The.Transporter.Refueled.2015.720p.BRRiP.HEVC.x265.AC3-MAJESTIC.mkv": 1811064485, "The.Transporter.Refueled.2015.720p.BRRiP.HEVC.x265.AC3-MAJESTIC.nfo": 1853}
创建时间: 2018-12-17 12:06:47 大小:1.69 GB 文件数量:2 热度:6 最近下载:2022-04-23 06:30:47
    {"SUJAIDR.txt": 18, "Torrent downloaded from demonoid.ph.txt": 46, "Torrent downloaded from AhaShare.com.txt": 59, "Victor Frankenstein (2015) 720p BluRay x265 HEVC SUJAIDR.mkv": 849448419}
创建时间: 2018-12-17 12:28:42 大小:810.1 MB 文件数量:4 热度:5 最近下载:2022-04-23 06:42:18
    {"Supergirl.S04E05.Parasite.Lost.1080p.10bit.AMZN.WEB-DL.AAC5.1.HEVC-Vyndros.mkv": 1019078622}
创建时间: 2018-12-17 12:32:44 大小:971.87 MB 文件数量:1 热度:5 最近下载:2022-04-23 06:15:36
    {"SUJAIDR.txt": 18, "Torrent downloaded from demonoid.ph.txt": 46, "Torrent downloaded from AhaShare.com.txt": 59, "Chi Raq (2015) 720p BluRay.x265 HEVC SUJAIDR.mkv": 981586399}
创建时间: 2018-12-17 12:52:11 大小:936.11 MB 文件数量:4 热度:7 最近下载:2025-08-03 13:19:03
    {"Torrent downloaded from limetorrents.cc.txt": 39, "12.Monkeys.S04E05.After.1080p.AMZN.WEBRip.x265.10bit.OPUS.5.1-TimeDistortion.mkv": 735224837, "12.Monkeys.S04E03.45.RPM.1080p.AMZN.WEB-DL.x265.10bit.OPUS.5.1-TimeDistortion.mkv": 766712966, "12.Monkeys. ...
创建时间: 2018-12-17 14:22:10 大小:9.28 GB 文件数量:12 热度:28 最近下载:2025-10-13 18:28:01